createdAt,value
2023-02-27T00:03:23.289Z,45.95
2023-02-27T00:08:25.393Z,45.72
2023-02-27T00:13:29.428Z,45.57
2023-02-27T00:18:31.525Z,45.99
2023-02-27T00:23:33.873Z,46.70
2023-02-27T00:28:35.962Z,46.67
2023-02-27T00:33:38.893Z,47.21
2023-02-27T00:38:43.500Z,47.50
2023-02-27T00:43:45.465Z,47.80
2023-02-27T00:48:47.391Z,47.83
2023-02-27T00:53:49.521Z,48.26
2023-02-27T00:58:51.563Z,48.63
2023-02-27T01:03:56.526Z,49.04
2023-02-27T01:08:58.569Z,49.45
2023-02-27T01:14:00.626Z,49.89
2023-02-27T01:19:02.961Z,50.11
2023-02-27T01:24:05.347Z,50.79
2023-02-27T01:29:07.779Z,49.31
2023-02-27T01:34:09.732Z,49.18
2023-02-27T01:39:11.754Z,48.92
2023-02-27T01:44:15.200Z,48.55
2023-02-27T01:49:32.746Z,48.69
2023-02-27T01:54:37.329Z,49.48
2023-02-27T01:59:41.515Z,49.69
2023-02-27T02:04:44.017Z,49.85
2023-02-27T02:09:49.698Z,50.26
2023-02-27T02:14:52.417Z,51.23
2023-02-27T02:20:18.411Z,51.67
2023-02-27T02:25:38.168Z,52.25
2023-02-27T02:30:52.271Z,51.89
2023-02-27T02:36:17.637Z,51.83
2023-02-27T02:41:22.689Z,52.01
2023-02-27T02:46:42.970Z,52.49
2023-02-27T02:51:51.174Z,52.52
2023-02-27T02:57:33.576Z,51.94
2023-02-27T03:02:41.189Z,52.04
2023-02-27T03:07:54.087Z,52.28
2023-02-27T03:12:59.729Z,52.58
2023-02-27T03:18:09.221Z,52.78
2023-02-27T03:23:18.086Z,52.72
2023-02-27T03:28:25.295Z,53.00
2023-02-27T03:33:35.844Z,52.91
2023-02-27T03:38:48.830Z,52.88
2023-02-27T03:44:07.844Z,53.10
2023-02-27T03:49:10.022Z,53.12
2023-02-27T03:54:17.268Z,53.78
2023-02-27T03:59:19.284Z,54.09
2023-02-27T04:04:26.124Z,54.11
2023-02-27T04:10:05.234Z,52.53
2023-02-27T04:15:41.281Z,52.34
2023-02-27T04:20:46.628Z,52.31
2023-02-27T04:25:57.491Z,51.93
2023-02-27T04:31:11.425Z,52.19
2023-02-27T04:36:19.209Z,52.99
2023-02-27T04:41:23.242Z,53.59
2023-02-27T04:46:28.577Z,53.62
2023-02-27T04:51:36.880Z,53.92
2023-02-27T04:56:44.963Z,54.37
2023-02-27T05:01:56.798Z,53.85
2023-02-27T05:07:00.295Z,54.02
2023-02-27T05:12:16.225Z,54.20
2023-02-27T05:17:23.068Z,53.63
2023-02-27T05:22:44.038Z,53.49
2023-02-27T05:27:51.578Z,53.77
2023-02-27T05:33:07.265Z,53.86
2023-02-27T05:38:18.248Z,54.01
2023-02-27T05:43:25.638Z,53.69
2023-02-27T05:48:31.720Z,53.82
2023-02-27T05:53:34.186Z,52.58
2023-02-27T05:58:46.401Z,52.29
2023-02-27T06:03:48.307Z,50.51
2023-02-27T06:08:50.254Z,50.04
2023-02-27T06:13:52.224Z,49.89
2023-02-27T06:18:55.643Z,48.49
2023-02-27T06:23:57.635Z,48.42
2023-02-27T06:29:00.037Z,48.51
2023-02-27T06:34:02.149Z,48.86
2023-02-27T06:39:05.031Z,48.69
2023-02-27T06:44:06.986Z,53.04
2023-02-27T06:49:09.003Z,46.81
2023-02-27T06:54:10.931Z,51.33
2023-02-27T06:59:13.188Z,46.31
2023-02-27T07:04:15.808Z,48.97
2023-02-27T07:09:17.934Z,44.92
2023-02-27T07:14:20.043Z,52.01
2023-02-27T07:19:24.712Z,47.15
2023-02-27T07:24:26.832Z,46.13
2023-02-27T07:29:28.821Z,44.51
2023-02-27T07:34:30.927Z,44.08
2023-02-27T07:39:32.835Z,44.09
2023-02-27T07:44:34.869Z,43.63
2023-02-27T07:49:36.807Z,44.67
2023-02-27T07:54:38.828Z,44.13
2023-02-27T07:59:40.911Z,44.82
2023-02-27T08:04:43.399Z,44.77
2023-02-27T08:09:45.302Z,43.85
2023-02-27T08:14:47.181Z,42.36
2023-02-27T08:19:49.128Z,41.72
2023-02-27T08:24:51.114Z,45.33
2023-02-27T08:29:53.083Z,46.65
2023-02-27T08:34:59.212Z,45.32
2023-02-27T08:40:02.797Z,43.06
2023-02-27T08:45:06.580Z,43.08
2023-02-27T08:50:10.698Z,43.19
2023-02-27T08:55:13.610Z,43.56
2023-02-27T09:00:17.002Z,43.11
2023-02-27T09:05:20.401Z,43.25
2023-02-27T09:10:23.195Z,42.71
2023-02-27T09:15:26.996Z,42.53
2023-02-27T09:20:33.474Z,40.04
2023-02-27T09:25:35.715Z,38.34
2023-02-27T09:30:37.605Z,36.48
2023-02-27T09:35:39.531Z,33.94
2023-02-27T09:40:42.536Z,31.63
2023-02-27T09:45:46.616Z,30.19
2023-02-27T09:50:50.232Z,30.23
2023-02-27T09:55:52.154Z,30.26
2023-02-27T10:01:01.006Z,28.93
2023-02-27T10:06:26.557Z,28.98
2023-02-27T10:11:57.740Z,28.46
2023-02-27T10:17:02.716Z,27.59
2023-02-27T10:22:08.241Z,28.36
2023-02-27T10:27:16.495Z,27.36
2023-02-27T10:32:31.012Z,27.75
2023-02-27T10:37:32.943Z,27.54
2023-02-27T10:42:36.766Z,26.57
2023-02-27T10:47:39.852Z,27.13
2023-02-27T10:52:53.775Z,27.86
2023-02-27T10:57:57.290Z,26.99
2023-02-27T11:02:59.762Z,28.23
2023-02-27T11:08:21.906Z,27.21
2023-02-27T11:13:26.023Z,27.35
2023-02-27T11:18:29.518Z,26.74
2023-02-27T11:23:34.081Z,26.92
2023-02-27T11:28:36.077Z,27.46
2023-02-27T11:33:57.112Z,27.67
2023-02-27T11:38:59.042Z,28.91
2023-02-27T11:44:05.069Z,29.46
2023-02-27T11:49:20.669Z,28.46
2023-02-27T11:54:41.298Z,30.00
2023-02-27T11:59:48.381Z,30.46
2023-02-27T12:05:16.943Z,31.13
2023-02-27T12:10:19.786Z,29.85
2023-02-27T12:15:33.596Z,29.27
2023-02-27T12:20:40.182Z,31.12
2023-02-27T12:25:50.915Z,30.57
2023-02-27T12:31:11.232Z,30.94
2023-02-27T12:36:14.293Z,30.76
2023-02-27T12:41:27.809Z,29.80
2023-02-27T12:46:29.801Z,30.24
2023-02-27T12:51:35.364Z,31.36
2023-02-27T12:56:59.129Z,30.56
2023-02-27T13:02:04.605Z,32.93
2023-02-27T13:07:22.362Z,30.88
2023-02-27T13:12:35.013Z,31.04
2023-02-27T13:17:52.398Z,31.11
2023-02-27T13:23:06.087Z,30.93
2023-02-27T13:28:13.758Z,31.33
2023-02-27T13:33:30.512Z,30.21
2023-02-27T13:38:42.728Z,32.13
2023-02-27T13:43:52.180Z,33.61
2023-02-27T13:49:29.549Z,36.48
2023-02-27T13:54:34.191Z,35.37
2023-02-27T13:59:40.475Z,33.79
2023-02-27T14:04:58.291Z,35.28
2023-02-27T14:10:03.211Z,31.92
2023-02-27T14:15:25.025Z,31.87
2023-02-27T14:20:30.901Z,33.86
2023-02-27T14:25:52.709Z,33.06
2023-02-27T14:31:06.529Z,32.02
2023-02-27T14:36:29.373Z,31.76
2023-02-27T14:41:53.210Z,32.79
2023-02-27T14:46:56.440Z,34.44
2023-02-27T14:52:12.470Z,34.28
2023-02-27T14:57:21.264Z,31.73
2023-02-27T15:02:26.311Z,34.60
2023-02-27T15:07:33.691Z,35.86
2023-02-27T15:12:39.595Z,32.92
2023-02-27T15:17:43.209Z,34.25
2023-02-27T15:22:45.149Z,32.72
2023-02-27T15:27:47.085Z,32.36
2023-02-27T15:32:49.468Z,33.78
2023-02-27T15:37:54.172Z,34.52
2023-02-27T15:42:56.969Z,32.60
2023-02-27T15:47:58.986Z,33.79
2023-02-27T15:53:20.818Z,37.30
2023-02-27T15:58:28.760Z,38.29
2023-02-27T16:03:40.076Z,32.27
2023-02-27T16:08:46.163Z,33.02
2023-02-27T16:13:48.356Z,33.65
2023-02-27T16:18:55.638Z,32.81
2023-02-27T16:24:18.279Z,34.88
2023-02-27T16:29:27.611Z,33.21
2023-02-27T16:34:45.631Z,32.83
2023-02-27T16:39:50.096Z,32.60
2023-02-27T16:44:52.008Z,32.37
2023-02-27T16:49:53.895Z,31.70
2023-02-27T16:54:56.035Z,33.12
2023-02-27T16:59:58.948Z,35.98
2023-02-27T17:05:01.715Z,32.78
2023-02-27T17:10:04.114Z,32.79
2023-02-27T17:15:06.706Z,32.75
2023-02-27T17:20:10.620Z,32.87
2023-02-27T17:25:13.438Z,33.67
2023-02-27T17:30:15.604Z,34.59
2023-02-27T17:35:17.620Z,38.14
2023-02-27T17:40:19.549Z,33.57
2023-02-27T17:45:21.785Z,34.33
2023-02-27T17:50:23.726Z,34.22
2023-02-27T17:55:25.623Z,34.62
2023-02-27T18:00:28.446Z,35.36
2023-02-27T18:05:30.386Z,35.83
2023-02-27T18:10:32.411Z,37.20
2023-02-27T18:15:34.382Z,36.82
2023-02-27T18:20:36.696Z,36.64
2023-02-27T18:25:39.016Z,36.67
2023-02-27T18:30:40.940Z,36.99
2023-02-27T18:35:42.967Z,38.69
2023-02-27T18:40:45.311Z,38.86
2023-02-27T18:45:47.270Z,38.98
2023-02-27T18:50:49.257Z,38.95
2023-02-27T18:55:51.355Z,38.40
2023-02-27T19:00:53.518Z,38.37
2023-02-27T19:05:55.632Z,39.58
2023-02-27T19:10:58.536Z,45.42
2023-02-27T19:16:06.314Z,41.02
2023-02-27T19:21:08.472Z,40.59
2023-02-27T19:26:10.401Z,40.18
2023-02-27T19:31:14.277Z,40.04
2023-02-27T19:36:18.661Z,40.83
2023-02-27T19:41:21.647Z,43.35
2023-02-27T19:46:30.106Z,41.04
2023-02-27T19:51:33.884Z,41.03
2023-02-27T19:56:35.945Z,41.40
2023-02-27T20:01:39.086Z,41.89
2023-02-27T20:06:44.083Z,42.53
2023-02-27T20:11:47.995Z,44.56
2023-02-27T20:16:49.964Z,42.96
2023-02-27T20:21:56.586Z,42.63
2023-02-27T20:26:59.337Z,42.47
2023-02-27T20:32:01.638Z,42.24
2023-02-27T20:37:03.740Z,42.59
2023-02-27T20:42:08.369Z,48.51
2023-02-27T20:47:10.581Z,43.32
2023-02-27T20:52:12.645Z,42.42
2023-02-27T20:57:14.666Z,42.84
2023-02-27T21:02:19.501Z,42.72
2023-02-27T21:07:22.645Z,43.23
2023-02-27T21:12:24.691Z,43.29
2023-02-27T21:17:26.771Z,43.26
2023-02-27T21:22:29.009Z,43.50
2023-02-27T21:27:31.017Z,43.88
2023-02-27T21:32:32.897Z,44.18
2023-02-27T21:37:34.867Z,44.04
2023-02-27T21:42:37.994Z,44.02
2023-02-27T21:47:40.069Z,43.79
2023-02-27T21:52:43.474Z,44.35
2023-02-27T21:57:45.492Z,43.77
2023-02-27T22:02:47.694Z,44.39
2023-02-27T22:07:49.734Z,44.93
2023-02-27T22:12:51.984Z,45.21
2023-02-27T22:17:54.940Z,45.63
2023-02-27T22:22:57.297Z,45.92
2023-02-27T22:27:59.902Z,46.47
2023-02-27T22:33:01.802Z,46.91
2023-02-27T22:38:03.786Z,47.41
2023-02-27T22:43:05.880Z,47.73
2023-02-27T22:48:07.814Z,48.28
2023-02-27T22:53:10.182Z,48.51
2023-02-27T22:58:12.216Z,49.11
2023-02-27T23:03:14.262Z,49.39
2023-02-27T23:08:16.831Z,49.60
2023-02-27T23:13:18.777Z,49.89
2023-02-27T23:18:21.564Z,50.16
2023-02-27T23:23:23.541Z,50.77
2023-02-27T23:28:25.453Z,50.88
2023-02-27T23:33:28.330Z,51.18
2023-02-27T23:38:30.557Z,51.38
2023-02-27T23:43:32.489Z,51.52
2023-02-27T23:48:34.903Z,51.80
2023-02-27T23:53:38.638Z,51.88
2023-02-27T23:58:40.615Z,51.95
